createdAt,value
2023-04-27T00:00:40.590Z,20.77
2023-04-27T00:03:07.365Z,25.35
2023-04-27T00:05:39.387Z,18.02
2023-04-27T00:08:06.994Z,16.52
2023-04-27T00:10:33.443Z,19.15
2023-04-27T00:13:00.612Z,17.52
2023-04-27T00:15:27.734Z,17.15
2023-04-27T00:17:54.938Z,25.42
2023-04-27T00:20:21.460Z,19.85
2023-04-27T00:22:47.885Z,22.00
2023-04-27T00:25:14.427Z,17.58
2023-04-27T00:27:41.235Z,21.10
2023-04-27T00:30:08.548Z,15.77
2023-04-27T00:32:35.035Z,17.42
2023-04-27T00:35:01.524Z,21.55
2023-04-27T00:37:28.009Z,15.15
2023-04-27T00:39:54.435Z,17.25
2023-04-27T00:42:21.535Z,26.38
2023-04-27T00:44:47.922Z,21.25
2023-04-27T00:47:16.453Z,20.50
2023-04-27T00:49:42.921Z,15.50
2023-04-27T00:52:09.320Z,18.92
2023-04-27T00:54:36.038Z,15.38
2023-04-27T00:57:04.171Z,16.85
2023-04-27T00:59:30.829Z,21.35
2023-04-27T01:01:57.684Z,20.25
2023-04-27T01:04:25.012Z,22.08
2023-04-27T01:06:51.751Z,24.27
2023-04-27T01:09:20.018Z,19.40
2023-04-27T01:11:47.027Z,16.55
2023-04-27T01:14:13.543Z,24.48
2023-04-27T01:16:40.663Z,24.58
2023-04-27T01:19:08.865Z,22.17
2023-04-27T01:21:35.745Z,18.27
2023-04-27T01:24:04.736Z,17.98
2023-04-27T01:26:31.562Z,18.75
2023-04-27T01:28:58.120Z,19.15
2023-04-27T01:31:24.661Z,22.05
2023-04-27T01:33:51.473Z,21.90
2023-04-27T01:36:17.907Z,18.42
2023-04-27T01:38:44.620Z,17.30
2023-04-27T01:41:11.178Z,21.88
2023-04-27T01:43:37.851Z,20.77
2023-04-27T01:46:08.773Z,18.80
2023-04-27T01:48:36.068Z,17.33
2023-04-27T01:51:03.629Z,21.17
2023-04-27T01:53:30.682Z,17.58
2023-04-27T01:55:57.658Z,21.52
2023-04-27T01:58:24.074Z,19.17
2023-04-27T02:00:50.638Z,18.23
2023-04-27T02:03:17.185Z,23.05
2023-04-27T02:05:43.886Z,21.00
2023-04-27T02:08:10.468Z,18.63
2023-04-27T02:10:36.990Z,22.08
2023-04-27T02:13:03.660Z,16.08
2023-04-27T02:15:30.326Z,15.80
2023-04-27T02:17:57.368Z,17.00
2023-04-27T02:20:23.955Z,18.25
2023-04-27T02:22:50.367Z,16.20
2023-04-27T02:25:16.968Z,15.75
2023-04-27T02:27:43.603Z,20.88
2023-04-27T02:30:11.845Z,15.68
2023-04-27T02:32:58.812Z,19.00
2023-04-27T02:35:25.367Z,26.05
2023-04-27T02:37:51.985Z,16.35
2023-04-27T02:40:18.429Z,17.02
2023-04-27T02:42:44.832Z,15.77
2023-04-27T02:45:11.591Z,15.23
2023-04-27T02:47:38.174Z,16.95
2023-04-27T02:50:05.152Z,18.20
2023-04-27T02:52:31.585Z,14.38
2023-04-27T02:54:58.029Z,17.88
2023-04-27T02:57:24.489Z,15.75
2023-04-27T02:59:51.102Z,13.65
2023-04-27T03:02:17.711Z,16.88
2023-04-27T03:04:44.372Z,15.85
2023-04-27T03:07:12.346Z,15.93
2023-04-27T03:09:38.913Z,15.00
2023-04-27T03:12:05.687Z,14.20
2023-04-27T03:14:32.208Z,16.95
2023-04-27T03:16:58.688Z,13.57
2023-04-27T03:19:25.181Z,13.60
2023-04-27T03:21:51.700Z,18.92
2023-04-27T03:24:18.173Z,20.23
2023-04-27T03:26:44.611Z,28.25
2023-04-27T03:29:11.053Z,16.75
2023-04-27T03:31:37.534Z,20.83
2023-04-27T03:34:04.024Z,15.05
2023-04-27T03:36:32.067Z,19.42
2023-04-27T03:38:58.771Z,16.10
2023-04-27T03:41:25.604Z,18.77
2023-04-27T03:43:53.520Z,19.65
2023-04-27T03:46:28.429Z,16.48
2023-04-27T03:48:54.940Z,21.77
2023-04-27T03:51:21.446Z,16.67
2023-04-27T03:53:47.907Z,22.35
2023-04-27T03:56:14.492Z,20.15
2023-04-27T03:58:40.883Z,17.55
2023-04-27T04:01:10.143Z,21.40
2023-04-27T04:03:37.391Z,31.50
2023-04-27T04:06:03.994Z,21.60
2023-04-27T04:08:30.725Z,18.67
2023-04-27T04:10:57.231Z,21.23
2023-04-27T04:13:23.822Z,18.98
2023-04-27T04:15:50.315Z,22.25
2023-04-27T04:18:16.743Z,27.00
2023-04-27T04:20:43.278Z,22.73
2023-04-27T04:23:09.684Z,21.77
2023-04-27T04:25:36.304Z,23.75
2023-04-27T04:28:02.962Z,22.30
2023-04-27T04:30:29.591Z,23.85
2023-04-27T04:32:56.122Z,28.38
2023-04-27T04:35:22.550Z,18.48
2023-04-27T04:37:49.107Z,21.42
2023-04-27T04:40:15.621Z,20.10
2023-04-27T04:42:42.099Z,23.70
2023-04-27T04:45:08.929Z,19.92
2023-04-27T04:47:35.505Z,17.77
2023-04-27T04:50:02.454Z,20.23
2023-04-27T04:52:29.067Z,22.35
2023-04-27T04:54:55.559Z,19.73
2023-04-27T04:57:22.230Z,18.40
2023-04-27T04:59:48.815Z,21.00
2023-04-27T05:02:15.438Z,25.45
2023-04-27T05:04:41.964Z,22.38
2023-04-27T05:07:08.637Z,18.42
2023-04-27T05:09:35.309Z,18.67
2023-04-27T05:12:02.400Z,18.42
2023-04-27T05:14:29.106Z,22.33
2023-04-27T05:16:55.785Z,25.90
2023-04-27T05:19:22.278Z,18.85
2023-04-27T05:21:48.706Z,24.52
2023-04-27T05:24:15.381Z,28.15
2023-04-27T05:26:43.339Z,21.45
2023-04-27T05:29:09.756Z,20.38
2023-04-27T05:31:36.252Z,24.15
2023-04-27T05:34:02.839Z,24.17
2023-04-27T05:36:29.319Z,17.83
2023-04-27T05:38:56.084Z,26.63
2023-04-27T05:41:23.748Z,21.20
2023-04-27T05:43:50.296Z,17.45
2023-04-27T05:46:16.863Z,19.15
2023-04-27T05:48:43.399Z,22.60
2023-04-27T05:51:10.006Z,17.85
2023-04-27T05:53:36.521Z,22.13
2023-04-27T05:56:04.432Z,16.33
2023-04-27T05:58:31.273Z,19.67
2023-04-27T06:00:57.805Z,18.67
2023-04-27T06:03:24.584Z,20.77
2023-04-27T06:05:59.030Z,20.75
2023-04-27T06:08:26.311Z,16.27
2023-04-27T06:10:53.311Z,20.20
2023-04-27T06:13:20.713Z,18.02
2023-04-27T06:15:47.729Z,22.67
2023-04-27T06:18:14.512Z,17.92
2023-04-27T06:20:41.973Z,16.05
2023-04-27T06:23:08.490Z,18.52
2023-04-27T06:25:37.406Z,20.27
2023-04-27T06:28:03.909Z,18.77
2023-04-27T06:30:30.572Z,17.15
2023-04-27T06:32:57.042Z,15.55
2023-04-27T06:35:23.603Z,15.05
2023-04-27T06:37:50.203Z,15.50
2023-04-27T06:40:16.884Z,14.13
2023-04-27T06:42:43.456Z,20.00
2023-04-27T06:45:10.665Z,17.05
2023-04-27T06:47:37.116Z,16.08
2023-04-27T06:50:04.211Z,15.32
2023-04-27T06:52:33.145Z,15.52
2023-04-27T06:54:59.737Z,16.00
2023-04-27T06:57:26.853Z,17.40
2023-04-27T06:59:53.397Z,15.75
2023-04-27T07:02:19.916Z,14.85
2023-04-27T07:04:46.800Z,14.90
2023-04-27T07:07:13.378Z,16.42
2023-04-27T07:09:39.883Z,14.00
2023-04-27T07:12:06.578Z,14.80
2023-04-27T07:14:33.800Z,15.63
2023-04-27T07:17:00.297Z,15.32
2023-04-27T07:19:26.734Z,12.95
2023-04-27T07:21:53.173Z,14.23
2023-04-27T07:24:20.381Z,13.35
2023-04-27T07:26:46.788Z,12.38
2023-04-27T07:29:26.533Z,13.75
2023-04-27T07:31:55.752Z,13.23
2023-04-27T07:34:22.752Z,15.68
2023-04-27T07:36:49.310Z,12.70
2023-04-27T07:39:15.878Z,13.27
2023-04-27T07:41:42.880Z,16.20
2023-04-27T07:44:09.284Z,20.00
2023-04-27T07:46:35.750Z,13.32
2023-04-27T07:49:02.500Z,12.90
2023-04-27T07:51:29.333Z,13.77
2023-04-27T07:53:56.386Z,12.43
2023-04-27T07:56:22.893Z,13.20
2023-04-27T07:58:49.417Z,15.15
2023-04-27T08:01:16.937Z,12.68
2023-04-27T08:03:44.630Z,13.07
2023-04-27T08:06:12.158Z,11.98
2023-04-27T08:08:38.881Z,14.18
2023-04-27T08:11:09.199Z,23.33
2023-04-27T08:16:02.734Z,12.10
2023-04-27T08:18:29.168Z,12.68
2023-04-27T08:20:55.714Z,13.25
2023-04-27T08:23:22.110Z,12.63
2023-04-27T08:25:48.737Z,11.35
2023-04-27T08:28:15.426Z,11.55
2023-04-27T08:30:42.732Z,12.45
2023-04-27T08:33:09.259Z,14.45
2023-04-27T08:35:36.131Z,14.52
2023-04-27T08:38:02.562Z,15.10
2023-04-27T08:40:29.470Z,12.02
2023-04-27T08:42:58.262Z,12.82
2023-04-27T08:45:26.301Z,12.13
2023-04-27T08:47:52.807Z,13.25
2023-04-27T08:50:19.610Z,12.43
2023-04-27T08:52:46.868Z,14.70
2023-04-27T08:55:15.844Z,16.75
2023-04-27T08:57:54.209Z,14.43
2023-04-27T09:00:21.066Z,15.32
2023-04-27T09:02:48.675Z,12.32
2023-04-27T09:05:17.157Z,14.57
2023-04-27T09:07:55.325Z,14.32
2023-04-27T09:10:23.185Z,12.80
2023-04-27T09:13:03.910Z,13.23
2023-04-27T09:15:40.900Z,12.70
2023-04-27T09:18:12.365Z,14.82
2023-04-27T09:20:46.815Z,14.88
2023-04-27T09:23:46.495Z,15.85
2023-04-27T09:26:23.307Z,15.18
2023-04-27T09:28:52.488Z,14.75
2023-04-27T09:31:20.631Z,13.50
2023-04-27T09:33:55.487Z,12.30
2023-04-27T09:36:22.600Z,14.32
2023-04-27T09:38:51.430Z,14.85
2023-04-27T09:41:18.838Z,12.32
2023-04-27T09:43:46.249Z,11.85
2023-04-27T09:46:14.308Z,12.35
2023-04-27T09:48:41.386Z,12.70
2023-04-27T09:51:08.167Z,12.65
2023-04-27T09:54:00.385Z,13.23
2023-04-27T09:56:46.530Z,14.43
2023-04-27T09:59:31.601Z,14.95
2023-04-27T10:02:09.925Z,15.00
2023-04-27T10:04:57.946Z,14.60
2023-04-27T10:07:27.535Z,12.82
2023-04-27T10:09:53.966Z,12.85
2023-04-27T10:12:28.406Z,12.70
2023-04-27T10:14:59.575Z,14.77
2023-04-27T10:17:31.588Z,12.80
2023-04-27T10:20:03.034Z,12.90
2023-04-27T10:22:50.145Z,12.70
2023-04-27T10:25:18.915Z,18.48
2023-04-27T10:27:59.853Z,15.90
2023-04-27T10:30:32.454Z,17.23
2023-04-27T10:33:04.159Z,13.10
2023-04-27T10:35:34.658Z,12.73
2023-04-27T10:38:15.272Z,12.38
2023-04-27T10:40:45.318Z,14.30
2023-04-27T10:43:16.274Z,13.15
2023-04-27T10:45:43.961Z,14.50
2023-04-27T10:48:16.539Z,14.93
2023-04-27T10:50:44.814Z,12.75
2023-04-27T10:53:11.583Z,12.52
2023-04-27T10:55:38.106Z,13.13
2023-04-27T10:58:04.781Z,12.93
2023-04-27T11:00:36.231Z,16.15
2023-04-27T11:03:12.145Z,14.43
2023-04-27T11:05:38.758Z,17.45
2023-04-27T11:08:10.440Z,16.17
2023-04-27T11:10:47.344Z,15.52
2023-04-27T11:13:16.048Z,14.73
2023-04-27T11:15:46.649Z,16.33
2023-04-27T11:18:13.489Z,15.30
2023-04-27T11:20:40.042Z,14.82
2023-04-27T11:23:07.580Z,14.45
2023-04-27T11:25:34.168Z,14.00
2023-04-27T11:28:00.671Z,12.73
2023-04-27T11:30:27.130Z,13.77
2023-04-27T11:32:54.318Z,15.73
2023-04-27T11:35:31.965Z,14.38
2023-04-27T11:37:59.510Z,14.57
2023-04-27T11:40:27.225Z,13.00
2023-04-27T11:42:58.657Z,13.30
2023-04-27T11:45:28.049Z,13.38
2023-04-27T11:47:54.754Z,13.60
2023-04-27T11:50:24.610Z,16.10
2023-04-27T11:52:51.638Z,14.88
2023-04-27T11:55:20.871Z,15.35
2023-04-27T11:57:47.497Z,13.80
2023-04-27T12:00:15.413Z,13.25
2023-04-27T12:02:43.624Z,14.00
2023-04-27T12:05:12.466Z,13.10
2023-04-27T12:07:39.613Z,12.32
2023-04-27T12:10:07.771Z,13.00
2023-04-27T12:12:34.328Z,12.88
2023-04-27T12:15:01.338Z,13.05
2023-04-27T12:17:27.873Z,13.52
2023-04-27T12:19:54.385Z,12.82
2023-04-27T12:22:21.060Z,13.07
2023-04-27T12:24:47.520Z,13.30
2023-04-27T12:27:13.952Z,13.00
2023-04-27T12:29:40.439Z,12.57
2023-04-27T12:32:06.857Z,14.65
2023-04-27T12:34:33.403Z,14.13
2023-04-27T12:36:59.883Z,13.00
2023-04-27T12:39:26.741Z,13.85
2023-04-27T12:41:54.060Z,13.88
2023-04-27T12:44:21.551Z,14.95
2023-04-27T12:46:48.442Z,14.15
2023-04-27T12:49:15.395Z,14.70
2023-04-27T12:51:42.085Z,14.55
2023-04-27T12:54:10.638Z,15.20
2023-04-27T12:56:37.105Z,14.13
2023-04-27T12:59:04.138Z,15.90
2023-04-27T13:01:31.498Z,17.88
2023-04-27T13:04:03.478Z,18.60
2023-04-27T13:06:32.018Z,21.05
2023-04-27T13:08:59.813Z,22.10
2023-04-27T13:11:27.076Z,20.83
2023-04-27T13:13:54.885Z,19.25
2023-04-27T13:16:22.764Z,20.52
2023-04-27T13:18:51.929Z,20.58
2023-04-27T13:21:18.530Z,18.42
2023-04-27T13:23:44.916Z,18.23
2023-04-27T13:26:11.731Z,18.70
2023-04-27T13:28:38.205Z,18.40
2023-04-27T13:31:05.543Z,18.20
2023-04-27T13:33:44.994Z,17.17
2023-04-27T13:36:12.858Z,17.02
2023-04-27T13:38:39.940Z,17.40
2023-04-27T13:41:06.732Z,17.38
2023-04-27T13:43:33.328Z,16.25
2023-04-27T13:46:01.777Z,16.42
2023-04-27T13:48:29.544Z,15.82
2023-04-27T13:50:56.258Z,16.80
2023-04-27T13:53:25.795Z,15.23
2023-04-27T13:55:53.997Z,14.85
2023-04-27T13:58:20.816Z,15.45
2023-04-27T14:00:48.349Z,14.73
2023-04-27T14:03:16.498Z,14.90
2023-04-27T14:05:44.475Z,15.73
2023-04-27T14:08:11.706Z,14.68
2023-04-27T14:10:38.690Z,15.40
2023-04-27T14:13:05.925Z,14.27
2023-04-27T14:15:36.873Z,16.23
2023-04-27T14:18:05.494Z,14.60
2023-04-27T14:20:32.143Z,13.35
2023-04-27T14:22:59.276Z,12.23
2023-04-27T14:25:25.907Z,18.05
2023-04-27T14:27:52.286Z,13.85
2023-04-27T14:30:18.838Z,13.43
2023-04-27T14:32:45.374Z,13.35
2023-04-27T14:35:11.880Z,15.90
2023-04-27T14:37:38.347Z,14.23
2023-04-27T14:40:06.850Z,13.85
2023-04-27T14:42:33.460Z,15.15
2023-04-27T14:44:59.907Z,14.35
2023-04-27T14:47:26.811Z,14.98
2023-04-27T14:49:53.364Z,14.50
2023-04-27T14:52:19.787Z,13.65
2023-04-27T14:54:46.316Z,13.65
2023-04-27T14:57:12.858Z,14.57
2023-04-27T14:59:39.378Z,13.60
2023-04-27T15:02:05.861Z,14.82
2023-04-27T15:04:35.217Z,15.40
2023-04-27T15:07:01.807Z,13.97
2023-04-27T15:09:28.319Z,13.57
2023-04-27T15:11:54.725Z,15.02
2023-04-27T15:14:21.168Z,14.35
2023-04-27T15:16:47.560Z,14.95
2023-04-27T15:19:14.159Z,14.57
2023-04-27T15:21:40.752Z,15.00
2023-04-27T15:24:07.230Z,17.63
2023-04-27T15:26:33.768Z,14.10
2023-04-27T15:29:00.800Z,15.48
2023-04-27T15:31:27.276Z,14.68
2023-04-27T15:33:54.635Z,15.13
2023-04-27T15:36:22.904Z,14.20
2023-04-27T15:38:50.417Z,14.45
2023-04-27T15:41:16.931Z,13.45
2023-04-27T15:43:43.341Z,15.50
2023-04-27T15:46:10.223Z,17.17
2023-04-27T15:48:36.710Z,14.82
2023-04-27T15:51:03.915Z,15.15
2023-04-27T15:53:30.470Z,13.93
2023-04-27T15:55:56.943Z,16.05
2023-04-27T15:58:23.366Z,16.02
2023-04-27T16:00:49.807Z,14.35
2023-04-27T16:03:16.390Z,15.27
2023-04-27T16:05:43.035Z,15.65
2023-04-27T16:08:09.452Z,14.50
2023-04-27T16:10:35.996Z,16.75
2023-04-27T16:13:02.470Z,13.90
2023-04-27T16:15:28.874Z,14.73
2023-04-27T16:17:55.613Z,14.57
2023-04-27T16:20:22.617Z,15.20
2023-04-27T16:22:49.051Z,23.88
2023-04-27T16:25:15.933Z,17.38
2023-04-27T16:27:43.432Z,14.77
2023-04-27T16:30:10.047Z,15.52
2023-04-27T16:32:37.632Z,16.83
2023-04-27T16:35:04.391Z,16.67
2023-04-27T16:37:30.928Z,16.58
2023-04-27T16:40:01.201Z,14.40
2023-04-27T16:42:27.882Z,17.60
2023-04-27T16:44:54.725Z,15.73
2023-04-27T16:47:21.331Z,16.80
2023-04-27T16:49:47.929Z,18.42
2023-04-27T16:52:14.474Z,16.80
2023-04-27T16:54:40.915Z,17.67
2023-04-27T16:57:07.777Z,15.52
2023-04-27T16:59:34.465Z,15.52
2023-04-27T17:02:12.516Z,19.75
2023-04-27T17:04:47.781Z,15.25
2023-04-27T17:07:14.885Z,17.75
2023-04-27T17:09:41.717Z,15.25
2023-04-27T17:12:10.875Z,14.20
2023-04-27T17:14:38.436Z,14.55
2023-04-27T17:17:05.975Z,15.88
2023-04-27T17:19:32.399Z,14.90
2023-04-27T17:21:58.884Z,14.32
2023-04-27T17:24:25.513Z,14.23
2023-04-27T17:26:52.143Z,27.85
2023-04-27T17:29:18.616Z,16.10
2023-04-27T17:31:45.110Z,15.63
2023-04-27T17:34:11.948Z,14.95
2023-04-27T17:36:38.573Z,15.05
2023-04-27T17:39:05.020Z,16.63
2023-04-27T17:41:32.825Z,14.55
2023-04-27T17:44:00.160Z,16.85
2023-04-27T17:46:26.832Z,15.32
2023-04-27T17:48:53.351Z,15.55
2023-04-27T17:51:19.838Z,15.60
2023-04-27T17:53:46.372Z,15.35
2023-04-27T17:56:12.813Z,15.15
2023-04-27T17:58:39.302Z,14.80
2023-04-27T18:01:09.194Z,17.23
2023-04-27T18:03:36.377Z,15.20
2023-04-27T18:06:02.966Z,15.82
2023-04-27T18:08:29.650Z,15.68
2023-04-27T18:10:56.192Z,15.00
2023-04-27T18:13:22.765Z,15.07
2023-04-27T18:15:49.518Z,14.95
2023-04-27T18:18:21.170Z,15.23
2023-04-27T18:20:48.509Z,17.67
2023-04-27T18:23:15.186Z,16.05
2023-04-27T18:25:41.720Z,15.32
2023-04-27T18:28:09.323Z,16.55
2023-04-27T18:30:35.776Z,15.80
2023-04-27T18:33:02.331Z,16.15
2023-04-27T18:35:28.783Z,15.65
2023-04-27T18:37:55.266Z,18.00
2023-04-27T18:40:22.556Z,17.50
2023-04-27T18:42:49.959Z,16.98
2023-04-27T18:45:16.476Z,19.77
2023-04-27T18:47:43.620Z,19.05
2023-04-27T18:50:11.112Z,16.17
2023-04-27T18:52:37.553Z,18.15
2023-04-27T18:55:04.980Z,21.10
2023-04-27T18:57:31.838Z,18.65
2023-04-27T18:59:58.494Z,19.00
2023-04-27T19:02:27.372Z,18.10
2023-04-27T19:05:11.568Z,16.58
2023-04-27T19:07:39.784Z,16.75
2023-04-27T19:10:07.245Z,16.50
2023-04-27T19:12:33.767Z,16.65
2023-04-27T19:15:02.265Z,16.83
2023-04-27T19:17:29.151Z,19.25
2023-04-27T19:19:56.050Z,19.58
2023-04-27T19:22:22.809Z,17.88
2023-04-27T19:24:49.220Z,17.60
2023-04-27T19:27:16.107Z,16.63
2023-04-27T19:29:54.183Z,16.48
2023-04-27T19:32:21.555Z,23.02
2023-04-27T19:34:48.619Z,17.85
2023-04-27T19:37:15.091Z,17.25
2023-04-27T19:39:41.770Z,17.80
2023-04-27T19:42:08.332Z,18.52
2023-04-27T19:44:34.960Z,20.10
2023-04-27T19:47:01.354Z,21.60
2023-04-27T19:49:32.628Z,22.40
2023-04-27T19:51:59.925Z,21.60
2023-04-27T19:54:27.045Z,18.23
2023-04-27T19:56:54.309Z,20.25
2023-04-27T19:59:21.038Z,20.13
2023-04-27T20:01:48.299Z,26.30
2023-04-27T20:04:15.472Z,24.38
2023-04-27T20:06:43.281Z,21.45
2023-04-27T20:09:10.025Z,27.33
2023-04-27T20:11:36.477Z,28.30
2023-04-27T20:14:02.965Z,44.53
2023-04-27T20:16:29.706Z,49.97
2023-04-27T20:18:56.127Z,45.25
2023-04-27T20:21:22.673Z,38.55
2023-04-27T20:23:49.339Z,36.83
2023-04-27T20:26:15.912Z,29.83
2023-04-27T20:28:42.965Z,29.92
2023-04-27T20:31:09.600Z,27.48
2023-04-27T20:33:36.247Z,29.35
2023-04-27T20:36:16.208Z,29.52
2023-04-27T20:38:44.196Z,24.73
2023-04-27T20:41:12.294Z,27.08
2023-04-27T20:43:41.563Z,25.80
2023-04-27T20:46:10.093Z,25.30
2023-04-27T20:48:36.593Z,30.40
2023-04-27T20:51:03.255Z,27.17
2023-04-27T20:53:30.070Z,26.67
2023-04-27T20:55:56.949Z,26.27
2023-04-27T20:58:23.753Z,29.15
2023-04-27T21:00:50.727Z,28.05
2023-04-27T21:03:17.440Z,34.35
2023-04-27T21:05:44.060Z,57.83
2023-04-27T21:08:10.571Z,41.97
2023-04-27T21:10:37.243Z,32.83
2023-04-27T21:13:04.081Z,30.20
2023-04-27T21:15:30.946Z,31.38
2023-04-27T21:17:57.458Z,26.13
2023-04-27T21:20:24.072Z,24.65
2023-04-27T21:22:50.503Z,27.23
2023-04-27T21:25:16.941Z,36.42
2023-04-27T21:27:43.820Z,24.83
2023-04-27T21:30:10.987Z,22.73
2023-04-27T21:32:37.714Z,25.77
2023-04-27T21:35:04.454Z,27.23
2023-04-27T21:37:31.256Z,25.10
2023-04-27T21:39:57.836Z,24.35
2023-04-27T21:42:24.375Z,30.77
2023-04-27T21:44:50.956Z,30.48
2023-04-27T21:47:17.421Z,26.02
2023-04-27T21:49:43.891Z,33.65
2023-04-27T21:52:11.074Z,40.45
2023-04-27T21:54:37.553Z,30.27
2023-04-27T21:57:04.167Z,37.47
2023-04-27T21:59:30.741Z,32.03
2023-04-27T22:01:59.267Z,31.85
2023-04-27T22:04:26.068Z,30.55
2023-04-27T22:06:52.719Z,28.67
2023-04-27T22:09:19.268Z,25.40
2023-04-27T22:11:46.506Z,25.95
2023-04-27T22:14:13.044Z,32.85
2023-04-27T22:16:39.636Z,26.08
2023-04-27T22:19:06.120Z,26.80
2023-04-27T22:21:33.205Z,26.70
2023-04-27T22:24:00.246Z,26.58
2023-04-27T22:26:26.802Z,25.48
2023-04-27T22:28:53.636Z,29.50
2023-04-27T22:31:20.385Z,26.05
2023-04-27T22:33:46.899Z,25.27
2023-04-27T22:36:13.353Z,22.70
2023-04-27T22:38:39.863Z,34.55
2023-04-27T22:41:06.312Z,26.35
2023-04-27T22:43:32.726Z,27.95
2023-04-27T22:45:59.145Z,25.90
2023-04-27T22:48:25.945Z,29.63
2023-04-27T22:50:52.448Z,26.23
2023-04-27T22:53:18.922Z,24.77
2023-04-27T22:55:45.362Z,24.38
2023-04-27T22:58:11.955Z,22.75
2023-04-27T23:00:38.472Z,22.13
2023-04-27T23:03:05.194Z,24.25
2023-04-27T23:05:32.418Z,23.15
2023-04-27T23:07:59.829Z,27.60
2023-04-27T23:10:26.767Z,26.15
2023-04-27T23:12:54.707Z,24.27
2023-04-27T23:15:23.953Z,21.92
2023-04-27T23:17:50.426Z,26.48
2023-04-27T23:22:51.406Z,25.02
2023-04-27T23:25:17.921Z,25.88
2023-04-27T23:27:44.333Z,26.60
2023-04-27T23:30:11.729Z,26.02
2023-04-27T23:32:38.296Z,26.77
2023-04-27T23:35:05.699Z,32.15
2023-04-27T23:37:32.170Z,27.23
2023-04-27T23:39:58.778Z,26.52
2023-04-27T23:42:25.283Z,28.85
2023-04-27T23:44:52.993Z,27.33
2023-04-27T23:47:19.468Z,24.60
2023-04-27T23:49:45.977Z,27.02
2023-04-27T23:52:12.578Z,24.08
2023-04-27T23:54:39.157Z,28.75
2023-04-27T23:57:06.527Z,26.83
2023-04-27T23:59:35.975Z,28.55
